createdAt,value
2022-12-22T00:02:36.393Z,95887.19
2022-12-22T00:05:30.622Z,95888.22
2022-12-22T00:08:16.078Z,95889.88
2022-12-22T00:11:01.224Z,95891.00
2022-12-22T00:13:47.888Z,95879.94
2022-12-22T00:16:33.372Z,95887.22
2022-12-22T00:19:18.506Z,95891.13
2022-12-22T00:22:03.546Z,95878.31
2022-12-22T00:24:48.792Z,95875.47
2022-12-22T00:27:46.730Z,95865.38
2022-12-22T00:30:34.832Z,95860.97
2022-12-22T00:33:21.441Z,95867.50
2022-12-22T00:36:06.724Z,95866.75
2022-12-22T00:38:52.619Z,95868.31
2022-12-22T00:41:38.782Z,95859.41
2022-12-22T00:44:24.627Z,95872.53
2022-12-22T00:47:11.405Z,95864.91
2022-12-22T00:49:59.215Z,95868.69
2022-12-22T00:52:44.422Z,95864.06
2022-12-22T00:55:34.452Z,95860.41
2022-12-22T00:58:20.909Z,95837.50
2022-12-22T01:01:06.142Z,95843.88
2022-12-22T01:03:52.407Z,95844.38
2022-12-22T01:06:38.186Z,95844.97
2022-12-22T01:09:23.614Z,95839.66
2022-12-22T01:12:09.146Z,95839.47
2022-12-22T01:14:54.466Z,95828.69
2022-12-22T01:17:39.509Z,95826.97
2022-12-22T01:20:27.040Z,95838.63
2022-12-22T01:23:12.520Z,95839.47
2022-12-22T01:25:57.476Z,95834.94
2022-12-22T01:28:42.932Z,95837.75
2022-12-22T01:31:36.319Z,95845.13
2022-12-22T01:34:21.582Z,95839.75
2022-12-22T01:37:07.854Z,95839.47
2022-12-22T01:39:53.241Z,95835.13
2022-12-22T01:42:38.193Z,95818.09
2022-12-22T01:45:38.750Z,95810.38
2022-12-22T01:48:23.930Z,95820.69
2022-12-22T01:51:09.108Z,95821.72
2022-12-22T01:53:55.780Z,95813.97
2022-12-22T01:56:41.742Z,95817.38
2022-12-22T01:59:27.270Z,95800.16
2022-12-22T02:02:12.640Z,95801.56
2022-12-22T02:05:02.231Z,95793.91
2022-12-22T02:08:02.065Z,95788.66
2022-12-22T02:11:02.987Z,95788.25
2022-12-22T02:13:55.788Z,95784.31
2022-12-22T02:16:49.348Z,95774.34
2022-12-22T02:19:54.276Z,95784.47
2022-12-22T02:22:47.958Z,95774.47
2022-12-22T02:25:37.481Z,95779.56
2022-12-22T02:28:25.126Z,95782.16
2022-12-22T02:31:11.467Z,95779.81
2022-12-22T02:33:56.681Z,95779.84
2022-12-22T02:36:50.214Z,95778.41
2022-12-22T02:39:43.106Z,95777.75
2022-12-22T02:42:37.731Z,95771.66
2022-12-22T02:45:31.972Z,95775.97
2022-12-22T02:48:23.031Z,95779.81
2022-12-22T02:51:14.332Z,95786.13
2022-12-22T02:53:59.669Z,95784.53
2022-12-22T02:56:44.733Z,95770.81
2022-12-22T02:59:29.966Z,95768.50
2022-12-22T03:02:16.412Z,95763.00
2022-12-22T03:05:01.841Z,95754.69
2022-12-22T03:07:47.008Z,95754.41
2022-12-22T03:10:32.370Z,95760.78
2022-12-22T03:13:18.057Z,95754.41
2022-12-22T03:16:03.243Z,95751.38
2022-12-22T03:18:49.855Z,95747.47
2022-12-22T03:21:34.961Z,95740.84
2022-12-22T03:24:20.287Z,95725.59
2022-12-22T03:26:47.789Z,95732.00
2022-12-22T03:29:15.366Z,95724.88
2022-12-22T03:31:42.886Z,95724.66
2022-12-22T03:34:11.774Z,95724.56
2022-12-22T03:36:39.285Z,95719.66
2022-12-22T03:39:06.982Z,95709.34
2022-12-22T03:41:52.073Z,95715.88
2022-12-22T03:44:37.552Z,95713.56
2022-12-22T03:47:05.215Z,95716.03
2022-12-22T03:49:34.119Z,95710.81
2022-12-22T03:52:01.609Z,95704.59
2022-12-22T03:54:29.096Z,95704.22
2022-12-22T03:56:56.627Z,95706.06
2022-12-22T03:59:24.249Z,95697.31
2022-12-22T04:01:53.699Z,95700.84
2022-12-22T04:04:23.561Z,95702.00
2022-12-22T04:06:52.533Z,95702.78
2022-12-22T04:09:20.174Z,95700.75
2022-12-22T04:12:05.490Z,95699.06
2022-12-22T04:14:34.744Z,95698.06
2022-12-22T04:17:02.699Z,95697.56
2022-12-22T04:19:30.260Z,95695.56
2022-12-22T04:21:59.136Z,95688.78
2022-12-22T04:24:26.704Z,95691.88
2022-12-22T04:26:54.366Z,95690.44
2022-12-22T04:29:21.894Z,95687.91
2022-12-22T04:31:49.575Z,95685.19
2022-12-22T04:34:17.121Z,95687.88
2022-12-22T04:36:44.608Z,95682.97
2022-12-22T04:39:13.542Z,95687.09
2022-12-22T04:41:41.030Z,95679.69
2022-12-22T04:44:08.510Z,95678.31
2022-12-22T04:46:36.005Z,95672.63
2022-12-22T04:49:03.529Z,95675.28
2022-12-22T04:51:31.058Z,95663.81
2022-12-22T04:53:58.561Z,95664.59
2022-12-22T04:56:27.356Z,95657.47
2022-12-22T04:58:54.848Z,95657.66
2022-12-22T05:01:22.535Z,95649.00
2022-12-22T05:03:50.200Z,95653.50
2022-12-22T05:06:17.786Z,95649.72
2022-12-22T05:08:45.299Z,95653.50
2022-12-22T05:11:13.016Z,95649.97
2022-12-22T05:13:41.879Z,95650.69
2022-12-22T05:16:11.030Z,95656.78
2022-12-22T05:18:41.204Z,95650.16
2022-12-22T05:21:10.966Z,95642.09
2022-12-22T05:23:38.511Z,95640.06
2022-12-22T05:26:06.428Z,95647.56
2022-12-22T05:28:34.004Z,95642.69
2022-12-22T05:31:05.960Z,95642.41
2022-12-22T05:33:33.652Z,95637.19
2022-12-22T05:36:01.184Z,95630.66
2022-12-22T05:38:28.678Z,95634.28
2022-12-22T05:41:03.659Z,95636.66
2022-12-22T05:43:32.170Z,95626.44
2022-12-22T05:46:02.867Z,95619.81
2022-12-22T05:48:37.447Z,95617.47
2022-12-22T05:51:06.158Z,95600.78
2022-12-22T05:53:34.729Z,95611.25
2022-12-22T05:56:02.245Z,95602.69
2022-12-22T05:58:29.738Z,95606.97
2022-12-22T06:00:58.624Z,95596.63
2022-12-22T06:03:26.554Z,95607.34
2022-12-22T06:05:55.741Z,95610.31
2022-12-22T06:08:23.595Z,95607.09
2022-12-22T06:10:51.477Z,95594.59
2022-12-22T06:13:18.960Z,95597.16
2022-12-22T06:15:46.447Z,95602.09
2022-12-22T06:18:13.967Z,95599.38
2022-12-22T06:20:41.451Z,95597.81
2022-12-22T06:23:10.307Z,95603.22
2022-12-22T06:25:37.795Z,95597.06
2022-12-22T06:28:05.701Z,95597.06
2022-12-22T06:30:33.940Z,95586.50
2022-12-22T06:33:01.787Z,95582.09
2022-12-22T06:35:29.670Z,95587.13
2022-12-22T06:37:57.155Z,95601.88
2022-12-22T06:40:25.978Z,95596.63
2022-12-22T06:43:11.069Z,95597.03
2022-12-22T06:45:41.336Z,95604.78
2022-12-22T06:48:10.589Z,95595.88
2022-12-22T06:50:38.078Z,95602.03
2022-12-22T06:53:06.225Z,95603.31
2022-12-22T06:55:35.172Z,95606.38
2022-12-22T06:58:02.823Z,95604.03
2022-12-22T07:00:30.741Z,95604.63
2022-12-22T07:02:58.416Z,95606.19
2022-12-22T07:05:26.113Z,95615.56
2022-12-22T07:07:53.942Z,95606.97
2022-12-22T07:10:41.532Z,95604.19
2022-12-22T07:13:20.269Z,95604.00
2022-12-22T07:15:53.850Z,95605.72
2022-12-22T07:18:25.151Z,95612.78
2022-12-22T07:20:52.657Z,95600.66
2022-12-22T07:23:20.130Z,95600.59
2022-12-22T07:25:47.602Z,95603.22
2022-12-22T07:28:20.706Z,95598.19
2022-12-22T07:30:49.256Z,95594.25
2022-12-22T07:33:16.838Z,95600.91
2022-12-22T07:35:44.440Z,95592.34
2022-12-22T07:38:12.150Z,95583.66
2022-12-22T07:40:42.360Z,95579.44
2022-12-22T07:43:09.623Z,95576.84
2022-12-22T07:45:39.292Z,95577.34
2022-12-22T07:48:27.328Z,95577.34
2022-12-22T07:50:54.184Z,95578.28
2022-12-22T07:53:21.664Z,95576.81
2022-12-22T07:55:49.146Z,95572.97
2022-12-22T07:58:16.641Z,95575.19
2022-12-22T08:00:45.482Z,95569.53
2022-12-22T08:03:13.152Z,95563.28
2022-12-22T08:05:40.821Z,95566.22
2022-12-22T08:08:08.306Z,95568.34
2022-12-22T08:10:35.769Z,95563.47
2022-12-22T08:13:03.322Z,95556.25
2022-12-22T08:15:30.822Z,95551.19
2022-12-22T08:17:59.620Z,95558.16
2022-12-22T08:20:27.180Z,95561.53
2022-12-22T08:22:57.168Z,95560.91
2022-12-22T08:25:24.756Z,95570.31
2022-12-22T08:27:55.219Z,95558.16
2022-12-22T08:30:22.735Z,95550.72
2022-12-22T08:32:52.072Z,95555.13
2022-12-22T08:35:21.252Z,95556.19
2022-12-22T08:37:49.353Z,95543.88
2022-12-22T08:40:22.299Z,95547.44
2022-12-22T08:42:52.944Z,95544.94
2022-12-22T08:45:20.443Z,95552.97
2022-12-22T08:47:47.916Z,95555.47
2022-12-22T08:50:15.508Z,95563.28
2022-12-22T08:52:44.361Z,95564.41
2022-12-22T08:55:12.046Z,95553.50
2022-12-22T08:57:39.515Z,95548.22
2022-12-22T09:00:09.091Z,95557.19
2022-12-22T09:02:38.462Z,95548.25
2022-12-22T09:05:06.414Z,95539.78
2022-12-22T09:07:33.901Z,95548.19
2022-12-22T09:10:02.714Z,95554.03
2022-12-22T09:12:30.411Z,95558.84
2022-12-22T09:14:58.511Z,95555.47
2022-12-22T09:17:26.098Z,95556.78
2022-12-22T09:19:53.583Z,95552.88
2022-12-22T09:22:28.209Z,95542.22
2022-12-22T09:24:56.218Z,95544.06
2022-12-22T09:27:25.060Z,95528.91
2022-12-22T09:29:52.601Z,95529.41
2022-12-22T09:32:20.174Z,95522.44
2022-12-22T09:34:48.727Z,95513.28
2022-12-22T09:37:16.766Z,95517.56
2022-12-22T09:39:44.376Z,95509.25
2022-12-22T09:42:15.703Z,95515.09
2022-12-22T09:44:46.317Z,95493.13
2022-12-22T09:47:19.391Z,95497.50
2022-12-22T09:49:47.025Z,95503.00
2022-12-22T09:52:25.229Z,95506.88
2022-12-22T09:54:52.916Z,95504.28
2022-12-22T09:57:20.531Z,95509.06
2022-12-22T09:59:49.467Z,95514.31
2022-12-22T10:02:26.680Z,95511.47
2022-12-22T10:05:02.363Z,95517.91
2022-12-22T10:07:33.284Z,95515.31
2022-12-22T10:10:06.611Z,95508.06
2022-12-22T10:12:34.318Z,95507.47
2022-12-22T10:15:03.192Z,95518.38
2022-12-22T10:17:32.850Z,95515.66
2022-12-22T10:20:21.973Z,95498.44
2022-12-22T10:22:52.068Z,95489.28
2022-12-22T10:25:45.045Z,95492.03
2022-12-22T10:28:21.634Z,95487.63
2022-12-22T10:30:50.702Z,95482.41
2022-12-22T10:33:19.993Z,95477.41
2022-12-22T10:35:50.726Z,95496.13
2022-12-22T10:38:25.524Z,95505.22
2022-12-22T10:41:01.572Z,95488.13
2022-12-22T10:43:32.602Z,95494.09
2022-12-22T10:46:03.332Z,95489.06
2022-12-22T10:48:33.384Z,95498.22
2022-12-22T10:51:02.620Z,95499.81
2022-12-22T10:53:49.758Z,95499.59
2022-12-22T10:56:26.787Z,95487.72
2022-12-22T10:58:56.547Z,95489.75
2022-12-22T11:01:28.728Z,95491.41
2022-12-22T11:03:56.478Z,95482.88
2022-12-22T11:06:24.136Z,95479.75
2022-12-22T11:08:52.185Z,95475.03
2022-12-22T11:11:36.629Z,95466.28
2022-12-22T11:14:16.437Z,95467.19
2022-12-22T11:16:51.797Z,95472.63
2022-12-22T11:19:45.971Z,95469.69
2022-12-22T11:22:25.778Z,95469.88
2022-12-22T11:25:04.894Z,95464.66
2022-12-22T11:27:45.981Z,95468.69
2022-12-22T11:30:19.207Z,95465.34
2022-12-22T11:33:01.509Z,95464.25
2022-12-22T11:35:43.231Z,95464.81
2022-12-22T11:38:20.863Z,95452.00
2022-12-22T11:40:50.910Z,95450.66
2022-12-22T11:43:24.668Z,95464.03
2022-12-22T11:46:03.992Z,95457.09
2022-12-22T11:49:01.466Z,95451.53
2022-12-22T11:51:46.235Z,95451.53
2022-12-22T11:54:38.248Z,95456.94
2022-12-22T11:57:18.451Z,95449.88
2022-12-22T11:59:54.701Z,95457.78
2022-12-22T12:02:55.352Z,95446.34
2022-12-22T12:05:45.209Z,95439.50
2022-12-22T12:08:26.688Z,95421.06
2022-12-22T12:10:58.843Z,95427.72
2022-12-22T12:13:37.505Z,95433.72
2022-12-22T12:16:18.297Z,95423.47
2022-12-22T12:19:12.870Z,95436.97
2022-12-22T12:21:47.037Z,95437.28
2022-12-22T12:24:31.358Z,95433.84
2022-12-22T12:27:08.375Z,95440.53
2022-12-22T12:29:41.391Z,95431.69
2022-12-22T12:32:16.382Z,95440.09
2022-12-22T12:34:47.778Z,95423.13
2022-12-22T12:37:26.561Z,95439.97
2022-12-22T12:40:07.813Z,95432.25
2022-12-22T12:42:38.629Z,95434.47
2022-12-22T12:45:34.665Z,95441.91
2022-12-22T12:48:35.854Z,95445.13
2022-12-22T12:51:03.365Z,95447.53
2022-12-22T12:53:31.518Z,95453.47
2022-12-22T12:56:07.598Z,95445.22
2022-12-22T12:58:54.801Z,95457.75
2022-12-22T13:01:57.298Z,95465.25
2022-12-22T13:05:12.337Z,95468.75
2022-12-22T13:08:14.222Z,95465.78
2022-12-22T13:10:44.775Z,95467.00
2022-12-22T13:13:29.777Z,95468.31
2022-12-22T13:16:22.579Z,95476.72
2022-12-22T13:18:51.558Z,95474.44
2022-12-22T13:24:25.708Z,95478.34
2022-12-22T13:26:56.154Z,95476.91
2022-12-22T13:29:41.537Z,95477.63
2022-12-22T13:32:20.281Z,95466.09
2022-12-22T13:37:43.809Z,95467.91
2022-12-22T13:40:18.093Z,95473.03
2022-12-22T13:42:48.877Z,95479.94
2022-12-22T13:45:27.025Z,95471.06
2022-12-22T13:47:54.994Z,95464.66
2022-12-22T13:50:26.610Z,95470.47
2022-12-22T13:52:57.018Z,95480.81
2022-12-22T13:55:27.037Z,95492.22
2022-12-22T13:57:58.607Z,95478.00
2022-12-22T14:00:30.538Z,95481.84
2022-12-22T14:02:58.188Z,95494.00
2022-12-22T14:05:31.740Z,95484.03
2022-12-22T14:08:01.379Z,95492.31
2022-12-22T14:10:33.704Z,95491.66
2022-12-22T14:13:06.840Z,95491.97
2022-12-22T14:15:35.957Z,95496.66
2022-12-22T14:18:03.766Z,95501.56
2022-12-22T14:20:36.387Z,95501.22
2022-12-22T14:23:08.971Z,95504.00
2022-12-22T14:25:39.574Z,95498.94
2022-12-22T14:28:09.593Z,95500.75
2022-12-22T14:30:42.864Z,95499.59
2022-12-22T14:33:29.869Z,95512.19
2022-12-22T14:36:15.285Z,95517.50
2022-12-22T14:38:44.452Z,95517.16
2022-12-22T14:41:38.405Z,95503.13
2022-12-22T14:44:06.315Z,95520.44
2022-12-22T14:46:38.897Z,95526.56
2022-12-22T14:49:07.079Z,95538.13
2022-12-22T14:51:34.683Z,95544.19
2022-12-22T14:54:03.538Z,95527.38
2022-12-22T14:56:31.354Z,95553.47
2022-12-22T14:59:11.231Z,95557.91
2022-12-22T15:01:40.344Z,95537.16
2022-12-22T15:04:16.360Z,95571.31
2022-12-22T15:06:45.909Z,95569.66
2022-12-22T15:12:18.237Z,95576.16
2022-12-22T15:14:48.729Z,95570.28
2022-12-22T15:17:22.990Z,95573.06
2022-12-22T15:19:51.616Z,95570.31
2022-12-22T15:22:19.194Z,95569.44
2022-12-22T15:24:47.846Z,95581.56
2022-12-22T15:27:15.380Z,95585.88
2022-12-22T15:29:42.868Z,95587.66
2022-12-22T15:32:12.341Z,95596.28
2022-12-22T15:34:41.226Z,95603.19
2022-12-22T15:37:12.835Z,95604.06
2022-12-22T15:39:40.547Z,95606.97
2022-12-22T15:42:08.287Z,95608.41
2022-12-22T15:44:38.883Z,95606.34
2022-12-22T15:47:07.359Z,95620.19
2022-12-22T15:49:34.896Z,95617.88
2022-12-22T15:52:07.061Z,95621.53
2022-12-22T15:54:34.622Z,95618.72
2022-12-22T15:57:02.717Z,95617.44
2022-12-22T15:59:30.901Z,95632.44
2022-12-22T16:02:01.927Z,95635.44
2022-12-22T16:04:29.769Z,95636.75
2022-12-22T16:06:57.923Z,95648.03
2022-12-22T16:09:32.449Z,95649.63
2022-12-22T16:11:59.986Z,95634.38
2022-12-22T16:14:27.539Z,95639.38
2022-12-22T16:16:56.368Z,95637.47
2022-12-22T16:19:23.849Z,95649.47
2022-12-22T16:21:54.157Z,95642.84
2022-12-22T16:24:28.700Z,95647.50
2022-12-22T16:26:57.797Z,95646.38
2022-12-22T16:29:26.433Z,95643.06
2022-12-22T16:31:54.853Z,95655.16
2022-12-22T16:34:22.429Z,95640.44
2022-12-22T16:36:49.895Z,95664.06
2022-12-22T16:39:17.666Z,95643.22
2022-12-22T16:41:46.560Z,95657.63
2022-12-22T16:47:18.158Z,95660.91
2022-12-22T16:49:47.252Z,95670.53
2022-12-22T16:52:19.464Z,95670.50
2022-12-22T16:54:52.446Z,95682.09
2022-12-22T16:57:21.627Z,95677.13
2022-12-22T16:59:49.101Z,95676.78
2022-12-22T17:02:24.929Z,95674.59
2022-12-22T17:04:54.460Z,95677.09
2022-12-22T17:07:22.287Z,95670.97
2022-12-22T17:09:54.398Z,95679.38
2022-12-22T17:12:27.343Z,95679.03
2022-12-22T17:14:57.074Z,95688.66
2022-12-22T17:17:31.914Z,95687.00
2022-12-22T17:20:01.715Z,95698.06
2022-12-22T17:22:31.540Z,95689.94
2022-12-22T17:25:02.961Z,95684.53
2022-12-22T17:27:33.270Z,95692.47
2022-12-22T17:30:03.342Z,95693.63
2022-12-22T17:32:30.831Z,95683.63
2022-12-22T17:34:58.333Z,95685.34
2022-12-22T17:37:26.232Z,95682.31
2022-12-22T17:40:01.094Z,95679.84
2022-12-22T17:42:31.249Z,95670.44
2022-12-22T17:45:00.234Z,95670.41
2022-12-22T17:47:33.296Z,95673.41
2022-12-22T17:50:02.414Z,95673.75
2022-12-22T17:52:29.937Z,95678.03
2022-12-22T17:54:57.643Z,95673.56
2022-12-22T17:57:28.626Z,95681.28
2022-12-22T17:59:56.169Z,95690.03
2022-12-22T18:02:26.288Z,95690.03
2022-12-22T18:04:54.321Z,95687.03
2022-12-22T18:07:24.220Z,95687.03
2022-12-22T18:10:00.687Z,95684.75
2022-12-22T18:12:29.743Z,95688.72
2022-12-22T18:14:57.232Z,95688.00
2022-12-22T18:17:35.150Z,95685.88
2022-12-22T18:20:03.481Z,95691.31
2022-12-22T18:22:31.038Z,95684.03
2022-12-22T18:24:58.667Z,95680.72
2022-12-22T18:27:26.133Z,95682.81
2022-12-22T18:29:53.649Z,95679.00
2022-12-22T18:32:27.504Z,95679.63
2022-12-22T18:34:56.819Z,95679.91
2022-12-22T18:37:24.336Z,95674.38
2022-12-22T18:39:51.878Z,95689.44
2022-12-22T18:42:21.697Z,95692.94
2022-12-22T18:44:49.682Z,95683.63
2022-12-22T18:47:17.880Z,95681.50
2022-12-22T18:49:45.745Z,95682.38
2022-12-22T18:52:19.221Z,95692.28
2022-12-22T18:54:47.350Z,95683.38
2022-12-22T18:57:17.076Z,95680.09
2022-12-22T18:59:46.011Z,95670.16
2022-12-22T19:02:22.725Z,95674.13
2022-12-22T19:04:51.290Z,95669.09
2022-12-22T19:07:23.244Z,95669.75
2022-12-22T19:09:51.082Z,95667.00
2022-12-22T19:12:20.613Z,95663.13
2022-12-22T19:14:51.196Z,95660.63
2022-12-22T19:17:22.177Z,95669.38
2022-12-22T19:19:49.717Z,95659.84
2022-12-22T19:22:17.470Z,95650.16
2022-12-22T19:24:46.274Z,95644.41
2022-12-22T19:27:17.553Z,95652.59
2022-12-22T19:29:45.721Z,95649.34
2022-12-22T19:32:23.615Z,95649.72
2022-12-22T19:34:51.502Z,95647.41
2022-12-22T19:37:19.360Z,95637.28
2022-12-22T19:39:48.345Z,95631.66
2022-12-22T19:42:17.969Z,95637.75
2022-12-22T19:44:45.615Z,95630.19
2022-12-22T19:47:18.682Z,95621.75
2022-12-22T19:49:46.373Z,95621.53
2022-12-22T19:52:13.885Z,95628.03
2022-12-22T19:54:41.505Z,95626.34
2022-12-22T19:57:18.478Z,95629.78
2022-12-22T19:59:49.798Z,95625.63
2022-12-22T20:02:27.174Z,95627.75
2022-12-22T20:04:55.989Z,95627.97
2022-12-22T20:07:27.164Z,95624.41
2022-12-22T20:09:55.065Z,95621.91
2022-12-22T20:12:32.661Z,95623.88
2022-12-22T20:15:01.022Z,95618.66
2022-12-22T20:17:28.783Z,95611.16
2022-12-22T20:19:56.270Z,95610.56
2022-12-22T20:22:24.753Z,95611.47
2022-12-22T20:24:54.408Z,95603.22
2022-12-22T20:27:25.173Z,95603.41
2022-12-22T20:29:52.689Z,95594.19
2022-12-22T20:32:27.378Z,95582.50
2022-12-22T20:34:55.288Z,95583.66
2022-12-22T20:37:22.917Z,95580.25
2022-12-22T20:39:50.410Z,95590.84
2022-12-22T20:42:19.846Z,95580.97
2022-12-22T20:45:02.392Z,95579.63
2022-12-22T20:47:33.073Z,95588.88
2022-12-22T20:50:00.669Z,95582.41
2022-12-22T20:52:28.170Z,95587.53
2022-12-22T20:54:55.663Z,95593.19
2022-12-22T20:57:24.348Z,95583.41
2022-12-22T20:59:56.498Z,95583.22
2022-12-22T21:02:27.745Z,95580.00
2022-12-22T21:04:55.920Z,95578.50
2022-12-22T21:07:23.512Z,95570.34
2022-12-22T21:09:51.027Z,95563.53
2022-12-22T21:12:18.497Z,95567.16
2022-12-22T21:14:46.030Z,95564.63
2022-12-22T21:17:17.319Z,95570.81
2022-12-22T21:19:44.991Z,95564.19
2022-12-22T21:22:12.837Z,95562.34
2022-12-22T21:24:41.549Z,95557.59
2022-12-22T21:27:16.197Z,95557.13
2022-12-22T21:29:43.691Z,95556.00
2022-12-22T21:32:16.152Z,95543.88
2022-12-22T21:34:43.612Z,95544.66
2022-12-22T21:37:18.514Z,95546.72
2022-12-22T21:39:46.352Z,95547.69
2022-12-22T21:42:16.102Z,95553.41
2022-12-22T21:44:44.591Z,95541.94
2022-12-22T21:47:14.555Z,95536.53
2022-12-22T21:49:43.454Z,95543.28
2022-12-22T21:52:10.961Z,95539.66
2022-12-22T21:54:38.503Z,95535.47
2022-12-22T21:57:06.046Z,95537.88
2022-12-22T21:59:33.551Z,95539.66
2022-12-22T22:02:01.367Z,95536.34
2022-12-22T22:04:29.055Z,95533.44
2022-12-22T22:06:57.905Z,95526.13
2022-12-22T22:09:25.458Z,95527.66
2022-12-22T22:12:10.697Z,95523.91
2022-12-22T22:14:38.344Z,95526.31
2022-12-22T22:17:05.820Z,95501.56
2022-12-22T22:19:33.409Z,95511.84
2022-12-22T22:22:02.215Z,95519.19
2022-12-22T22:24:31.705Z,95504.72
2022-12-22T22:26:59.824Z,95505.66
2022-12-22T22:29:27.296Z,95502.78
2022-12-22T22:31:54.769Z,95488.41
2022-12-22T22:34:22.236Z,95482.00
2022-12-22T22:36:49.733Z,95479.75
2022-12-22T22:39:18.590Z,95480.25
2022-12-22T22:41:46.089Z,95475.66
2022-12-22T22:44:13.693Z,95472.72
2022-12-22T22:46:41.754Z,95468.94
2022-12-22T22:49:09.421Z,95465.53
2022-12-22T22:51:36.902Z,95462.19
2022-12-22T22:54:04.598Z,95451.63
2022-12-22T22:56:33.515Z,95445.50
2022-12-22T22:59:01.007Z,95453.50
2022-12-22T23:01:28.657Z,95455.44
2022-12-22T23:03:56.267Z,95450.09
2022-12-22T23:06:23.904Z,95449.75
2022-12-22T23:08:52.092Z,95441.69
2022-12-22T23:11:19.607Z,95435.47
2022-12-22T23:13:48.458Z,95431.53
2022-12-22T23:16:16.174Z,95428.56
2022-12-22T23:18:43.681Z,95431.22
2022-12-22T23:21:12.314Z,95419.41
2022-12-22T23:23:39.850Z,95419.16
2022-12-22T23:26:07.515Z,95414.81
2022-12-22T23:28:35.364Z,95412.91
2022-12-22T23:31:04.512Z,95419.34
2022-12-22T23:33:33.140Z,95415.13
2022-12-22T23:36:00.879Z,95411.97
2022-12-22T23:38:28.372Z,95401.97
2022-12-22T23:41:03.132Z,95395.25
2022-12-22T23:43:30.772Z,95394.91
2022-12-22T23:45:58.639Z,95390.66
2022-12-22T23:48:27.483Z,95380.59
2022-12-22T23:50:55.041Z,95386.59
2022-12-22T23:53:22.599Z,95369.56
2022-12-22T23:55:50.720Z,95367.09
2022-12-22T23:58:18.820Z,95363.56
